createdAt,value
2022-11-02T00:00:13.541Z,59.40
2022-11-02T00:01:13.567Z,59.70
2022-11-02T00:02:13.564Z,58.70
2022-11-02T00:03:14.271Z,58.80
2022-11-02T00:04:13.210Z,59.40
2022-11-02T00:05:18.206Z,59.10
2022-11-02T00:06:13.561Z,59.20
2022-11-02T00:07:13.745Z,59.60
2022-11-02T00:08:13.695Z,59.50
2022-11-02T00:09:13.626Z,59.80
2022-11-02T00:10:13.829Z,59.30
2022-11-02T00:11:14.087Z,59.20
2022-11-02T00:12:13.233Z,59.20
2022-11-02T00:13:13.429Z,58.40
2022-11-02T00:14:13.226Z,59.60
2022-11-02T00:15:13.383Z,59.60
2022-11-02T00:16:13.287Z,59.90
2022-11-02T00:17:13.226Z,59.40
2022-11-02T00:18:13.446Z,59.20
2022-11-02T00:19:13.286Z,59.10
2022-11-02T00:20:13.372Z,59.80
2022-11-02T00:21:13.828Z,59.40
2022-11-02T00:22:14.199Z,59.30
2022-11-02T00:23:13.478Z,59.10
2022-11-02T00:24:13.478Z,59.70
2022-11-02T00:25:13.775Z,59.70
2022-11-02T00:26:13.881Z,60.00
2022-11-02T00:27:14.053Z,59.60
2022-11-02T00:28:13.137Z,59.20
2022-11-02T00:29:13.208Z,59.80
2022-11-02T00:30:13.217Z,60.10
2022-11-02T00:31:13.168Z,59.80
2022-11-02T00:32:13.554Z,59.70
2022-11-02T00:33:13.926Z,59.60
2022-11-02T00:34:12.802Z,59.70
2022-11-02T00:35:13.713Z,60.10
2022-11-02T00:36:13.619Z,59.40
2022-11-02T00:37:13.762Z,59.60
2022-11-02T00:38:13.678Z,59.60
2022-11-02T00:39:13.642Z,59.50
2022-11-02T00:40:13.860Z,59.90
2022-11-02T00:41:14.085Z,59.90
2022-11-02T00:42:12.973Z,59.40
2022-11-02T00:43:14.230Z,59.90
2022-11-02T00:44:13.191Z,60.30
2022-11-02T00:45:13.122Z,61.10
2022-11-02T00:46:13.650Z,62.20
2022-11-02T00:47:14.263Z,62.90
2022-11-02T00:48:13.597Z,63.70
2022-11-02T00:49:13.626Z,64.10
2022-11-02T00:50:13.794Z,64.70
2022-11-02T00:51:14.138Z,65.20
2022-11-02T00:52:13.328Z,65.70
2022-11-02T00:53:13.394Z,66.10
2022-11-02T00:54:13.460Z,65.60
2022-11-02T00:55:13.365Z,66.10
2022-11-02T00:56:13.304Z,66.20
2022-11-02T00:57:13.250Z,66.30
2022-11-02T00:58:13.250Z,66.40
2022-11-02T00:59:13.381Z,66.90
2022-11-02T01:00:13.258Z,66.20
2022-11-02T01:01:13.191Z,66.20
2022-11-02T01:02:13.764Z,66.10
2022-11-02T01:03:13.035Z,66.00
2022-11-02T01:04:13.154Z,65.50
2022-11-02T01:05:13.125Z,65.40
2022-11-02T01:06:13.153Z,66.00
2022-11-02T01:07:13.059Z,65.70
2022-11-02T01:08:13.373Z,65.80
2022-11-02T01:09:13.299Z,65.30
2022-11-02T01:10:13.311Z,64.90
2022-11-02T01:11:13.283Z,65.30
2022-11-02T01:12:13.144Z,64.90
2022-11-02T01:13:13.097Z,64.90
2022-11-02T01:14:13.257Z,65.40
2022-11-02T01:15:13.173Z,65.40
2022-11-02T01:16:13.321Z,65.00
2022-11-02T01:17:13.490Z,65.30
2022-11-02T01:18:13.488Z,65.00
2022-11-02T01:19:13.788Z,64.70
2022-11-02T01:20:13.604Z,64.10
2022-11-02T01:21:13.455Z,64.80
2022-11-02T01:22:13.482Z,64.70
2022-11-02T01:23:13.405Z,64.10
2022-11-02T01:24:13.401Z,63.90
2022-11-02T01:25:13.306Z,64.30
2022-11-02T01:26:13.334Z,64.60
2022-11-02T01:27:13.545Z,64.50
2022-11-02T01:28:13.501Z,63.90
2022-11-02T01:29:13.973Z,64.50
2022-11-02T01:30:12.814Z,64.60
2022-11-02T01:31:13.771Z,64.80
2022-11-02T01:32:13.926Z,64.80
2022-11-02T01:33:13.037Z,64.90
2022-11-02T01:34:13.000Z,64.60
2022-11-02T01:35:13.158Z,64.80
2022-11-02T01:36:13.315Z,64.20
2022-11-02T01:37:13.218Z,64.70
2022-11-02T01:38:13.342Z,64.20
2022-11-02T01:39:13.375Z,63.90
2022-11-02T01:40:13.307Z,63.70
2022-11-02T01:41:13.154Z,63.80
2022-11-02T01:42:12.950Z,64.00
2022-11-02T01:43:12.782Z,64.00
2022-11-02T01:44:13.833Z,63.90
2022-11-02T01:45:13.801Z,64.20
2022-11-02T01:46:13.957Z,64.20
2022-11-02T01:47:12.823Z,63.80
2022-11-02T01:48:13.765Z,64.00
2022-11-02T01:49:13.676Z,63.90
2022-11-02T01:50:13.717Z,63.70
2022-11-02T01:51:13.555Z,63.50
2022-11-02T01:52:13.575Z,63.90
2022-11-02T01:53:13.711Z,63.70
2022-11-02T01:54:13.870Z,63.90
2022-11-02T01:55:13.069Z,64.00
2022-11-02T01:56:13.628Z,63.90
2022-11-02T01:57:13.906Z,63.70
2022-11-02T01:58:12.852Z,64.00
2022-11-02T01:59:14.156Z,63.80
2022-11-02T02:00:13.385Z,63.90
2022-11-02T02:01:13.668Z,64.30
2022-11-02T02:02:14.120Z,64.20
2022-11-02T02:03:13.194Z,63.80
2022-11-02T02:04:13.340Z,64.40
2022-11-02T02:05:13.196Z,63.80
2022-11-02T02:06:13.201Z,64.00
2022-11-02T02:07:13.148Z,63.20
2022-11-02T02:08:13.199Z,63.60
2022-11-02T02:09:13.428Z,63.40
2022-11-02T02:10:13.628Z,63.90
2022-11-02T02:11:13.439Z,63.40
2022-11-02T02:12:13.626Z,63.80
2022-11-02T02:13:13.735Z,64.00
2022-11-02T02:14:13.579Z,63.50
2022-11-02T02:15:13.619Z,63.50
2022-11-02T02:16:13.556Z,63.40
2022-11-02T02:17:13.649Z,62.90
2022-11-02T02:18:13.973Z,63.00
2022-11-02T02:19:12.884Z,63.40
2022-11-02T02:20:14.064Z,63.10
2022-11-02T02:21:12.952Z,62.70
2022-11-02T02:22:12.954Z,62.10
2022-11-02T02:23:12.865Z,63.00
2022-11-02T02:24:14.072Z,62.60
2022-11-02T02:25:13.106Z,62.80
2022-11-02T02:26:13.204Z,63.00
2022-11-02T02:27:13.413Z,62.50
2022-11-02T02:28:13.596Z,62.20
2022-11-02T02:29:13.541Z,62.90
2022-11-02T02:30:13.570Z,62.70
2022-11-02T02:31:13.473Z,63.30
2022-11-02T02:32:13.316Z,63.50
2022-11-02T02:33:13.516Z,62.90
2022-11-02T02:34:13.559Z,62.10
2022-11-02T02:35:13.718Z,61.80
2022-11-02T02:36:13.623Z,62.10
2022-11-02T02:37:13.590Z,63.00
2022-11-02T02:38:13.922Z,63.60
2022-11-02T02:39:12.853Z,63.50
2022-11-02T02:40:13.781Z,63.00
2022-11-02T02:41:13.882Z,63.00
2022-11-02T02:42:13.867Z,63.50
2022-11-02T02:43:14.099Z,63.70
2022-11-02T02:44:13.025Z,62.90
2022-11-02T02:45:12.883Z,63.50
2022-11-02T02:46:14.041Z,63.80
2022-11-02T02:47:12.958Z,63.30
2022-11-02T02:48:13.032Z,63.30
2022-11-02T02:49:12.882Z,63.70
2022-11-02T02:50:13.624Z,63.70
2022-11-02T02:51:13.910Z,63.50
2022-11-02T02:52:13.269Z,63.40
2022-11-02T02:53:13.144Z,64.00
2022-11-02T02:54:13.323Z,62.90
2022-11-02T02:55:14.827Z,64.10
2022-11-02T02:56:14.189Z,63.40
2022-11-02T02:57:13.266Z,63.70
2022-11-02T02:58:13.301Z,63.70
2022-11-02T02:59:13.162Z,63.40
2022-11-02T03:00:13.337Z,63.10
2022-11-02T03:01:13.480Z,63.60
2022-11-02T03:02:13.531Z,63.70
2022-11-02T03:03:13.977Z,63.60
2022-11-02T03:04:12.907Z,63.80
2022-11-02T03:05:12.876Z,64.30
2022-11-02T03:06:13.928Z,64.40
2022-11-02T03:07:12.996Z,63.60
2022-11-02T03:08:12.889Z,63.80
2022-11-02T03:09:13.408Z,63.30
2022-11-02T03:10:13.463Z,64.00
2022-11-02T03:11:13.547Z,64.20
2022-11-02T03:12:13.422Z,64.50
2022-11-02T03:13:13.245Z,64.10
2022-11-02T03:14:13.592Z,63.50
2022-11-02T03:15:13.591Z,64.10
2022-11-02T03:16:13.504Z,64.40
2022-11-02T03:17:13.360Z,64.40
2022-11-02T03:18:13.227Z,64.10
2022-11-02T03:19:13.091Z,64.10
2022-11-02T03:20:13.208Z,63.90
2022-11-02T03:21:13.166Z,64.30
2022-11-02T03:22:13.293Z,63.90
2022-11-02T03:23:13.211Z,63.30
2022-11-02T03:24:13.262Z,64.10
2022-11-02T03:25:13.082Z,63.90
2022-11-02T03:26:13.283Z,63.70
2022-11-02T03:27:13.422Z,64.50
2022-11-02T03:28:13.432Z,64.40
2022-11-02T03:29:13.723Z,64.60
2022-11-02T03:30:13.565Z,64.10
2022-11-02T03:31:13.775Z,63.90
2022-11-02T03:32:13.878Z,64.30
2022-11-02T03:33:13.704Z,64.10
2022-11-02T03:34:14.039Z,64.10
2022-11-02T03:35:12.989Z,64.00
2022-11-02T03:36:13.035Z,64.20
2022-11-02T03:37:13.085Z,63.80
2022-11-02T03:38:13.390Z,64.30
2022-11-02T03:39:13.323Z,64.10
2022-11-02T03:40:13.806Z,64.40
2022-11-02T03:41:13.799Z,64.00
2022-11-02T03:42:13.720Z,63.40
2022-11-02T03:43:13.853Z,64.20
2022-11-02T03:44:13.738Z,64.20
2022-11-02T03:45:13.683Z,63.90
2022-11-02T03:46:13.480Z,63.90
2022-11-02T03:47:13.823Z,63.80
2022-11-02T03:48:14.103Z,64.00
2022-11-02T03:49:12.984Z,63.60
2022-11-02T03:50:12.872Z,63.80
2022-11-02T03:51:13.933Z,64.00
2022-11-02T03:52:12.868Z,63.80
2022-11-02T03:53:13.781Z,63.70
2022-11-02T03:54:13.812Z,64.10
2022-11-02T03:55:13.933Z,64.10
2022-11-02T03:56:13.126Z,64.00
2022-11-02T03:57:13.052Z,63.70
2022-11-02T03:58:13.355Z,63.70
2022-11-02T03:59:13.228Z,63.70
2022-11-02T04:00:13.078Z,63.30
2022-11-02T04:01:13.174Z,63.60
2022-11-02T04:02:13.185Z,63.90
2022-11-02T04:03:18.311Z,63.80
2022-11-02T04:04:13.946Z,63.90
2022-11-02T04:05:12.945Z,63.60
2022-11-02T04:06:12.903Z,63.90
2022-11-02T04:07:13.214Z,64.00
2022-11-02T04:08:13.569Z,63.00
2022-11-02T04:09:13.469Z,63.40
2022-11-02T04:10:13.717Z,63.20
2022-11-02T04:11:13.608Z,64.00
2022-11-02T04:12:13.719Z,63.70
2022-11-02T04:13:13.734Z,64.40
2022-11-02T04:14:13.696Z,64.60
2022-11-02T04:15:13.898Z,64.60
2022-11-02T04:16:12.829Z,64.40
2022-11-02T04:17:13.705Z,64.90
2022-11-02T04:18:13.600Z,64.60
2022-11-02T04:19:13.497Z,64.70
2022-11-02T04:20:13.407Z,65.10
2022-11-02T04:21:13.540Z,65.10
2022-11-02T04:22:13.353Z,65.20
2022-11-02T04:23:13.349Z,65.30
2022-11-02T04:24:13.161Z,65.20
2022-11-02T04:25:13.609Z,65.10
2022-11-02T04:26:13.532Z,65.30
2022-11-02T04:27:16.754Z,65.80
2022-11-02T04:28:13.715Z,65.70
2022-11-02T04:29:13.570Z,65.90
2022-11-02T04:30:13.547Z,65.60
2022-11-02T04:31:13.425Z,65.80
2022-11-02T04:32:13.538Z,65.90
2022-11-02T04:33:13.715Z,66.20
2022-11-02T04:34:13.719Z,66.50
2022-11-02T04:35:13.569Z,65.90
2022-11-02T04:36:13.514Z,66.30
2022-11-02T04:37:13.621Z,66.60
2022-11-02T04:38:13.564Z,66.80
2022-11-02T04:39:13.560Z,66.40
2022-11-02T04:40:13.494Z,66.40
2022-11-02T04:41:13.843Z,66.40
2022-11-02T04:42:14.411Z,65.90
2022-11-02T04:43:13.493Z,65.90
2022-11-02T04:44:13.371Z,66.00
2022-11-02T04:45:13.369Z,65.60
2022-11-02T04:46:13.813Z,65.50
2022-11-02T04:47:13.750Z,65.60
2022-11-02T04:48:13.738Z,65.10
2022-11-02T04:49:13.804Z,65.10
2022-11-02T04:50:13.755Z,65.00
2022-11-02T04:51:13.652Z,64.60
2022-11-02T04:52:13.724Z,64.80
2022-11-02T04:53:13.908Z,65.30
2022-11-02T04:54:12.830Z,64.80
2022-11-02T04:55:13.664Z,65.20
2022-11-02T04:56:13.858Z,65.20
2022-11-02T04:57:14.251Z,65.10
2022-11-02T04:58:13.589Z,65.10
2022-11-02T04:59:13.450Z,65.50
2022-11-02T05:00:13.399Z,65.30
2022-11-02T05:01:14.497Z,64.90
2022-11-02T05:02:13.447Z,65.20
2022-11-02T05:03:13.882Z,65.00
2022-11-02T05:04:13.766Z,64.80
2022-11-02T05:05:14.128Z,64.50
2022-11-02T05:06:13.405Z,64.30
2022-11-02T05:07:13.378Z,64.50
2022-11-02T05:08:13.553Z,64.30
2022-11-02T05:09:13.691Z,64.40
2022-11-02T05:10:14.006Z,64.50
2022-11-02T05:11:13.007Z,64.40
2022-11-02T05:12:12.994Z,64.70
2022-11-02T05:13:13.169Z,64.50
2022-11-02T05:14:13.069Z,64.20
2022-11-02T05:15:13.137Z,64.50
2022-11-02T05:16:13.027Z,64.40
2022-11-02T05:17:13.253Z,64.00
2022-11-02T05:18:18.460Z,64.00
2022-11-02T05:19:13.082Z,64.10
2022-11-02T05:20:12.958Z,64.00
2022-11-02T05:21:12.877Z,64.10
2022-11-02T05:22:13.987Z,64.20
2022-11-02T05:23:12.915Z,64.40
2022-11-02T05:24:12.823Z,64.00
2022-11-02T05:25:14.259Z,64.40
2022-11-02T05:26:13.609Z,64.50
2022-11-02T05:27:13.678Z,64.00
2022-11-02T05:28:13.576Z,63.70
2022-11-02T05:29:13.714Z,63.50
2022-11-02T05:30:13.560Z,63.40
2022-11-02T05:31:13.593Z,63.50
2022-11-02T05:32:13.509Z,63.00
2022-11-02T05:33:13.389Z,63.10
2022-11-02T05:34:13.343Z,63.60
2022-11-02T05:35:13.424Z,63.70
2022-11-02T05:36:13.401Z,63.70
2022-11-02T05:37:13.515Z,63.30
2022-11-02T05:38:13.465Z,63.30
2022-11-02T05:39:14.288Z,63.50
2022-11-02T05:40:13.237Z,63.10
2022-11-02T05:41:13.231Z,63.40
2022-11-02T05:42:13.281Z,62.60
2022-11-02T05:43:13.480Z,62.70
2022-11-02T05:44:13.402Z,63.60
2022-11-02T05:45:13.313Z,63.60
2022-11-02T05:46:13.477Z,63.10
2022-11-02T05:47:14.149Z,63.30
2022-11-02T05:48:13.650Z,63.60
2022-11-02T05:49:13.850Z,63.80
2022-11-02T05:50:13.745Z,63.80
2022-11-02T05:51:13.905Z,63.70
2022-11-02T05:52:12.977Z,63.10
2022-11-02T05:53:12.928Z,64.00
2022-11-02T05:54:13.305Z,63.70
2022-11-02T05:55:13.592Z,63.90
2022-11-02T05:56:13.624Z,64.30
2022-11-02T05:57:13.750Z,64.40
2022-11-02T05:58:14.042Z,64.80
2022-11-02T05:59:12.958Z,64.50
2022-11-02T06:00:12.953Z,64.50
2022-11-02T06:01:13.184Z,64.80
2022-11-02T06:02:13.498Z,64.80
2022-11-02T06:03:13.416Z,64.70
2022-11-02T06:04:13.400Z,64.50
2022-11-02T06:05:13.392Z,64.70
2022-11-02T06:06:13.394Z,64.30
2022-11-02T06:07:13.458Z,64.30
2022-11-02T06:08:18.728Z,63.60
2022-11-02T06:09:13.759Z,64.60
2022-11-02T06:10:13.667Z,64.70
2022-11-02T06:11:13.975Z,64.10
2022-11-02T06:12:12.818Z,64.40
2022-11-02T06:13:13.815Z,64.20
2022-11-02T06:14:14.127Z,64.50
2022-11-02T06:15:13.017Z,64.10
2022-11-02T06:16:13.219Z,63.70
2022-11-02T06:17:13.435Z,64.20
2022-11-02T06:18:13.536Z,64.60
2022-11-02T06:20:12.771Z,64.60
2022-11-02T06:21:13.890Z,64.00
2022-11-02T06:22:12.824Z,63.90
2022-11-02T06:23:13.841Z,63.50
2022-11-02T06:24:13.794Z,63.80
2022-11-02T06:25:13.711Z,63.70
2022-11-02T06:26:14.310Z,63.70
2022-11-02T06:27:13.374Z,63.60
2022-11-02T06:28:13.714Z,63.50
2022-11-02T06:29:13.928Z,63.60
2022-11-02T06:30:12.985Z,63.80
2022-11-02T06:31:12.939Z,63.50
2022-11-02T06:32:12.924Z,63.70
2022-11-02T06:33:13.532Z,63.50
2022-11-02T06:34:14.334Z,63.20
2022-11-02T06:35:13.244Z,62.90
2022-11-02T06:36:13.497Z,63.40
2022-11-02T06:37:13.405Z,63.40
2022-11-02T06:38:13.484Z,63.90
2022-11-02T06:39:13.381Z,63.70
2022-11-02T06:40:13.491Z,63.50
2022-11-02T06:41:13.493Z,63.40
2022-11-02T06:42:13.591Z,63.70
2022-11-02T06:43:17.643Z,63.10
2022-11-02T06:44:12.992Z,63.50
2022-11-02T06:45:12.869Z,63.40
2022-11-02T06:46:13.940Z,63.10
2022-11-02T06:47:12.865Z,63.80
2022-11-02T06:48:13.787Z,63.70
2022-11-02T06:49:13.967Z,63.30
2022-11-02T06:50:12.940Z,63.50
2022-11-02T06:51:12.995Z,63.40
2022-11-02T06:52:13.430Z,63.00
2022-11-02T06:53:13.328Z,63.30
2022-11-02T06:54:13.666Z,63.20
2022-11-02T06:55:13.606Z,63.70
2022-11-02T06:56:13.862Z,63.60
2022-11-02T06:57:14.017Z,63.40
2022-11-02T06:58:12.924Z,63.20
2022-11-02T06:59:12.883Z,63.20
2022-11-02T07:00:15.583Z,63.40
2022-11-02T07:01:23.475Z,63.00
2022-11-02T07:02:13.697Z,63.10
2022-11-02T07:03:13.587Z,63.10
2022-11-02T07:04:13.637Z,62.50
2022-11-02T07:05:13.939Z,62.70
2022-11-02T07:06:14.506Z,62.60
2022-11-02T07:07:13.706Z,62.90
2022-11-02T07:08:13.812Z,62.70
2022-11-02T07:09:14.068Z,62.30
2022-11-02T07:10:13.196Z,62.70
2022-11-02T07:11:13.068Z,62.40
2022-11-02T07:13:13.492Z,62.70
2022-11-02T07:14:13.449Z,62.60
2022-11-02T07:15:13.542Z,62.70
2022-11-02T07:16:33.022Z,62.30
2022-11-02T07:17:12.994Z,62.00
2022-11-02T07:18:12.929Z,62.60
2022-11-02T07:19:13.254Z,62.50
2022-11-02T07:20:13.196Z,62.10
2022-11-02T07:21:13.688Z,62.70
2022-11-02T07:22:13.684Z,62.40
2022-11-02T07:23:13.703Z,62.80
2022-11-02T07:24:13.644Z,62.10
2022-11-02T07:25:13.474Z,63.00
2022-11-02T07:26:14.562Z,62.20
2022-11-02T07:27:13.822Z,63.10
2022-11-02T07:28:13.933Z,63.00
2022-11-02T07:29:36.375Z,62.70
2022-11-02T07:30:13.341Z,62.70
2022-11-02T07:31:13.541Z,63.10
2022-11-02T07:32:13.592Z,62.70
2022-11-02T07:33:13.506Z,62.60
2022-11-02T07:34:16.908Z,62.10
2022-11-02T07:35:13.196Z,62.90
2022-11-02T07:36:13.111Z,62.90
2022-11-02T07:37:13.423Z,62.70
2022-11-02T07:38:13.705Z,62.90
2022-11-02T07:39:13.759Z,62.50
2022-11-02T07:40:13.682Z,61.90
2022-11-02T07:41:13.591Z,61.60
2022-11-02T07:42:13.365Z,61.90
2022-11-02T07:43:13.328Z,62.30
2022-11-02T07:44:13.262Z,62.40
2022-11-02T07:45:13.160Z,62.10
2022-11-02T07:46:13.155Z,61.90
2022-11-02T07:47:13.362Z,61.50
2022-11-02T07:48:13.406Z,61.30
2022-11-02T07:49:17.318Z,61.70
2022-11-02T07:50:13.137Z,61.50
2022-11-02T07:51:13.185Z,61.30
2022-11-02T07:52:13.315Z,61.80
2022-11-02T07:53:13.557Z,61.60
2022-11-02T07:54:13.717Z,61.80
2022-11-02T07:55:13.593Z,61.80
2022-11-02T07:56:13.744Z,61.90
2022-11-02T07:57:13.680Z,61.60
2022-11-02T07:58:13.711Z,62.20
2022-11-02T07:59:13.689Z,61.50
2022-11-02T08:00:13.618Z,61.60
2022-11-02T08:01:13.959Z,61.20
2022-11-02T08:02:30.833Z,61.20
2022-11-02T08:03:13.000Z,61.50
2022-11-02T08:04:13.032Z,61.30
2022-11-02T08:05:12.952Z,60.90
2022-11-02T08:06:13.052Z,60.60
2022-11-02T08:07:13.014Z,60.90
2022-11-02T08:08:13.839Z,60.50
2022-11-02T08:09:13.992Z,60.30
2022-11-02T08:10:12.989Z,61.10
2022-11-02T08:11:12.845Z,61.80
2022-11-02T08:12:13.747Z,62.00
2022-11-02T08:13:13.893Z,61.70
2022-11-02T08:14:12.897Z,61.90
2022-11-02T08:15:12.731Z,62.10
2022-11-02T08:16:13.865Z,61.90
2022-11-02T08:17:14.315Z,61.10
2022-11-02T08:18:13.501Z,61.70
2022-11-02T08:19:13.506Z,61.90
2022-11-02T08:20:13.505Z,61.80
2022-11-02T08:21:13.662Z,62.40
2022-11-02T08:22:13.775Z,62.70
2022-11-02T08:23:13.885Z,62.80
2022-11-02T08:24:13.995Z,62.60
2022-11-02T08:25:13.163Z,62.60
2022-11-02T08:26:13.296Z,62.40
2022-11-02T08:27:13.254Z,62.10
2022-11-02T08:28:13.329Z,62.10
2022-11-02T08:29:13.265Z,61.90
2022-11-02T08:30:13.403Z,62.30
2022-11-02T08:31:13.804Z,61.90
2022-11-02T08:32:14.063Z,62.10
2022-11-02T08:33:13.239Z,61.80
2022-11-02T08:34:13.424Z,62.00
2022-11-02T08:35:13.341Z,61.70
2022-11-02T08:36:13.266Z,61.60
2022-11-02T08:37:13.514Z,61.50
2022-11-02T08:38:13.417Z,61.60
2022-11-02T08:39:18.461Z,61.70
2022-11-02T08:40:12.911Z,60.20
2022-11-02T08:41:13.130Z,60.90
2022-11-02T08:42:13.054Z,60.30
2022-11-02T08:43:13.189Z,61.30
2022-11-02T08:44:13.069Z,60.60
2022-11-02T08:45:12.928Z,60.00
2022-11-02T08:46:15.359Z,60.00
2022-11-02T08:47:13.395Z,60.80
2022-11-02T08:48:13.587Z,60.30
2022-11-02T08:49:13.878Z,60.20
2022-11-02T08:50:12.878Z,60.40
2022-11-02T08:51:14.176Z,60.30
2022-11-02T08:52:13.388Z,59.50
2022-11-02T08:53:13.243Z,60.30
2022-11-02T08:54:18.274Z,59.70
2022-11-02T08:55:13.266Z,59.60
2022-11-02T08:56:13.659Z,59.20
2022-11-02T08:57:13.938Z,59.60
2022-11-02T08:58:18.128Z,59.70
2022-11-02T08:59:13.283Z,60.50
2022-11-02T09:00:13.554Z,60.40
2022-11-02T09:01:13.733Z,61.40
2022-11-02T09:02:14.072Z,61.80
2022-11-02T09:03:14.408Z,61.10
2022-11-02T09:04:13.852Z,60.70
2022-11-02T09:05:14.035Z,61.40
2022-11-02T09:06:13.219Z,60.40
2022-11-02T09:07:13.140Z,60.90
2022-11-02T09:08:13.300Z,60.50
2022-11-02T09:09:13.360Z,60.60
2022-11-02T09:10:13.217Z,60.20
2022-11-02T09:11:13.091Z,59.40
2022-11-02T09:12:12.972Z,59.40
2022-11-02T09:13:13.105Z,60.80
2022-11-02T09:14:13.340Z,59.90
2022-11-02T09:15:13.291Z,60.60
2022-11-02T09:16:13.233Z,60.40
2022-11-02T09:17:13.158Z,60.00
2022-11-02T09:18:13.116Z,59.80
2022-11-02T09:19:12.928Z,60.20
2022-11-02T09:20:13.281Z,59.80
2022-11-02T09:21:13.437Z,60.60
2022-11-02T09:22:13.740Z,59.20
2022-11-02T09:23:13.902Z,60.20
2022-11-02T09:24:12.819Z,60.30
2022-11-02T09:25:13.803Z,59.10
2022-11-02T09:26:13.887Z,58.70
2022-11-02T09:27:13.992Z,59.00
2022-11-02T09:28:13.268Z,58.70
2022-11-02T09:29:13.802Z,59.00
2022-11-02T09:30:13.732Z,59.10
2022-11-02T09:31:13.663Z,59.10
2022-11-02T09:32:18.809Z,57.90
2022-11-02T09:33:13.931Z,57.60
2022-11-02T09:34:14.042Z,56.40
2022-11-02T09:35:13.951Z,56.90
2022-11-02T09:36:13.231Z,56.30
2022-11-02T09:37:13.047Z,55.70
2022-11-02T09:38:12.924Z,57.30
2022-11-02T09:39:12.846Z,55.80
2022-11-02T09:40:13.986Z,53.50
2022-11-02T09:41:16.106Z,52.80
2022-11-02T09:42:19.514Z,54.00
2022-11-02T09:43:13.558Z,55.10
2022-11-02T09:44:13.958Z,54.80
2022-11-02T09:45:12.909Z,53.90
2022-11-02T09:46:13.031Z,56.10
2022-11-02T09:48:10.565Z,56.40
2022-11-02T09:48:19.675Z,54.50
2022-11-02T09:49:13.261Z,52.90
2022-11-02T09:50:13.430Z,55.20
2022-11-02T09:51:13.721Z,54.30
2022-11-02T09:52:14.485Z,54.10
2022-11-02T09:53:13.649Z,52.90
2022-11-02T09:54:17.297Z,51.80
2022-11-02T09:55:13.388Z,52.20
2022-11-02T09:56:13.612Z,51.20
2022-11-02T09:57:13.581Z,52.60
2022-11-02T09:58:13.986Z,53.00
2022-11-02T09:59:13.230Z,51.70
2022-11-02T10:00:13.440Z,49.60
2022-11-02T10:01:13.515Z,51.70
2022-11-02T10:02:13.753Z,50.80
2022-11-02T10:03:13.792Z,50.10
2022-11-02T10:04:13.792Z,51.30
2022-11-02T10:05:13.750Z,51.10
2022-11-02T10:06:14.036Z,51.10
2022-11-02T10:07:12.901Z,52.40
2022-11-02T10:08:12.787Z,53.10
2022-11-02T10:09:19.126Z,53.30
2022-11-02T10:10:13.266Z,52.60
2022-11-02T10:11:13.594Z,53.70
2022-11-02T10:12:13.565Z,52.50
2022-11-02T10:13:13.466Z,54.50
2022-11-02T10:14:13.858Z,54.40
2022-11-02T10:15:13.962Z,51.00
2022-11-02T10:16:12.961Z,50.60
2022-11-02T10:17:12.954Z,50.80
2022-11-02T10:18:12.884Z,50.30
2022-11-02T10:19:32.969Z,48.00
2022-11-02T10:20:12.973Z,47.10
2022-11-02T10:21:12.927Z,47.10
2022-11-02T10:22:13.311Z,49.40
2022-11-02T10:23:13.366Z,49.70
2022-11-02T10:24:13.234Z,48.90
2022-11-02T10:25:13.201Z,47.20
2022-11-02T10:26:13.214Z,48.10
2022-11-02T10:27:14.136Z,50.50
2022-11-02T10:28:13.409Z,51.70
2022-11-02T10:29:13.614Z,54.50
2022-11-02T10:30:13.533Z,52.00
2022-11-02T10:31:15.643Z,53.00
2022-11-02T10:32:17.995Z,54.00
2022-11-02T10:33:13.060Z,54.60
2022-11-02T10:34:13.150Z,53.40
2022-11-02T10:35:31.579Z,52.60
2022-11-02T10:36:18.844Z,51.00
2022-11-02T10:37:13.500Z,51.30
2022-11-02T10:38:19.035Z,52.80
2022-11-02T10:40:01.236Z,54.10
2022-11-02T10:40:13.433Z,54.20
2022-11-02T10:41:13.576Z,54.50
2022-11-02T10:42:13.484Z,55.10
2022-11-02T10:43:13.363Z,55.40
2022-11-02T10:44:13.289Z,55.10
2022-11-02T10:45:13.366Z,54.50
2022-11-02T10:46:39.189Z,54.70
2022-11-02T10:47:13.168Z,55.00
2022-11-02T10:48:13.508Z,53.40
2022-11-02T10:49:22.406Z,52.80
2022-11-02T10:50:13.801Z,52.10
2022-11-02T10:51:14.023Z,53.50
2022-11-02T10:52:13.118Z,54.10
2022-11-02T10:53:39.607Z,53.00
2022-11-02T10:54:12.865Z,50.10
2022-11-02T10:56:13.156Z,50.80
2022-11-02T10:57:26.813Z,48.00
2022-11-02T10:58:13.923Z,47.50
2022-11-02T10:59:13.525Z,49.10
2022-11-02T11:00:13.585Z,48.80
2022-11-02T11:01:13.904Z,47.10
2022-11-02T11:03:17.178Z,46.70
2022-11-02T11:04:18.152Z,45.90
2022-11-02T11:05:13.078Z,45.80
2022-11-02T11:06:13.043Z,48.50
2022-11-02T11:07:39.612Z,45.20
2022-11-02T11:08:13.534Z,45.30
2022-11-02T11:09:13.496Z,47.70
2022-11-02T11:10:13.437Z,47.80
2022-11-02T11:11:13.369Z,47.10
2022-11-02T11:12:13.271Z,48.20
2022-11-02T11:16:20.629Z,45.10
2022-11-02T11:19:40.968Z,46.40
2022-11-02T11:20:13.429Z,47.40
2022-11-02T11:21:13.413Z,49.60
2022-11-02T11:22:13.874Z,51.20
2022-11-02T11:23:13.756Z,47.20
2022-11-02T11:24:13.753Z,46.70
2022-11-02T11:25:13.738Z,46.90
2022-11-02T11:26:13.677Z,45.70
2022-11-02T11:27:13.688Z,47.20
2022-11-02T11:28:13.694Z,46.70
2022-11-02T11:29:13.692Z,45.70
2022-11-02T11:30:13.970Z,45.00
2022-11-02T11:31:13.109Z,46.70
2022-11-02T11:32:13.042Z,45.90
2022-11-02T11:33:14.276Z,47.80
2022-11-02T11:34:13.180Z,48.10
2022-11-02T11:35:12.984Z,48.10
2022-11-02T11:36:12.953Z,48.80
2022-11-02T11:37:12.830Z,49.10
2022-11-02T11:38:13.722Z,48.10
2022-11-02T11:39:13.664Z,47.50
2022-11-02T11:40:14.675Z,47.10
2022-11-02T11:41:13.861Z,47.30
2022-11-02T11:42:13.790Z,45.20
2022-11-02T11:43:13.741Z,48.20
2022-11-02T11:44:13.660Z,49.00
2022-11-02T11:45:13.862Z,48.10
2022-11-02T11:46:14.280Z,48.50
2022-11-02T11:47:13.386Z,48.50
2022-11-02T11:48:13.523Z,48.00
2022-11-02T11:49:13.564Z,48.60
2022-11-02T11:50:22.906Z,47.20
2022-11-02T11:51:12.955Z,45.20
2022-11-02T11:52:13.106Z,43.90
2022-11-02T11:53:13.247Z,43.10
2022-11-02T11:54:13.142Z,43.00
2022-11-02T11:55:13.241Z,42.00
2022-11-02T11:56:13.518Z,43.70
2022-11-02T11:57:13.770Z,42.20
2022-11-02T11:58:13.810Z,41.70
2022-11-02T11:59:14.210Z,41.40
2022-11-02T12:00:13.287Z,41.90
2022-11-02T12:01:13.253Z,41.50
2022-11-02T12:02:13.490Z,41.40
2022-11-02T12:03:13.880Z,44.30
2022-11-02T12:04:12.784Z,43.90
2022-11-02T12:05:13.947Z,42.60
2022-11-02T12:06:13.135Z,42.50
2022-11-02T12:07:13.161Z,41.70
2022-11-02T12:08:13.276Z,42.30
2022-11-02T12:09:13.117Z,45.00
2022-11-02T12:10:13.026Z,44.90
2022-11-02T12:12:12.854Z,46.10
2022-11-02T12:13:18.758Z,43.50
2022-11-02T12:14:13.960Z,44.00
2022-11-02T12:15:44.941Z,44.70
2022-11-02T12:16:12.883Z,45.70
2022-11-02T12:17:14.047Z,44.10
2022-11-02T12:18:13.259Z,43.00
2022-11-02T12:19:13.314Z,44.20
2022-11-02T12:20:13.563Z,44.70
2022-11-02T12:21:14.034Z,45.90
2022-11-02T12:22:13.083Z,45.40
2022-11-02T12:23:13.162Z,45.40
2022-11-02T12:24:13.418Z,44.90
2022-11-02T12:25:13.574Z,46.00
2022-11-02T12:26:13.556Z,45.40
2022-11-02T12:27:13.468Z,45.90
2022-11-02T12:28:14.003Z,43.80
2022-11-02T12:29:13.186Z,43.30
2022-11-02T12:30:13.032Z,43.10
2022-11-02T12:31:12.929Z,42.80
2022-11-02T12:32:12.779Z,43.30
2022-11-02T12:33:13.963Z,43.10
2022-11-02T12:34:12.946Z,42.40
2022-11-02T12:35:28.261Z,41.20
2022-11-02T12:36:13.668Z,43.20
2022-11-02T12:37:41.336Z,43.50
2022-11-02T12:38:13.635Z,44.40
2022-11-02T12:39:13.903Z,43.90
2022-11-02T12:40:13.233Z,43.50
2022-11-02T12:41:13.487Z,41.90
2022-11-02T12:42:13.411Z,42.40
2022-11-02T12:43:13.503Z,42.00
2022-11-02T12:44:13.663Z,42.30
2022-11-02T12:45:13.640Z,44.20
2022-11-02T12:46:13.523Z,44.30
2022-11-02T12:47:13.814Z,43.60
2022-11-02T12:48:14.006Z,43.20
2022-11-02T12:49:12.952Z,42.60
2022-11-02T12:50:12.956Z,42.30
2022-11-02T12:51:13.335Z,43.10
2022-11-02T12:52:13.197Z,42.40
2022-11-02T12:53:13.339Z,43.80
2022-11-02T12:54:13.496Z,43.90
2022-11-02T12:55:17.077Z,43.90
2022-11-02T12:56:13.437Z,44.70
2022-11-02T12:57:13.552Z,44.80
2022-11-02T12:58:52.682Z,43.50
2022-11-02T12:59:13.655Z,42.70
2022-11-02T13:00:13.682Z,41.60
2022-11-02T13:01:14.149Z,41.80
2022-11-02T13:02:55.759Z,43.90